Time;durP1;ratioP1;P1;durP2;ratioP2;P2;SDS_P1;SDS_P2;PMS_P1;PMS_P2;Temp;Humidity;BMP_temperature;BMP_pressure;BME280_temperature;BME280_humidity;BME280_pressure;Samples;Min_cycle;Max_cycle;Signal;HPM_P1;HPM_P2
2023/09/24 00:00:20;;;;;;;4.30;3.90;;;22.60;99.90;;;;;;6244512;28;89024;-66
2023/09/24 00:03:22;;;;;;;4.95;4.22;;;22.60;99.90;;;;;;6232825;27;89227;-66
2023/09/24 00:06:25;;;;;;;4.95;4.45;;;22.60;99.90;;;;;;6218309;28;89047;-66
2023/09/24 00:09:27;;;;;;;4.80;4.28;;;22.50;99.90;;;;;;6227991;28;89357;-66
2023/09/24 00:12:29;;;;;;;5.78;4.75;;;22.60;99.90;;;;;;6229051;28;89066;-66
2023/09/24 00:15:34;;;;;;;5.63;4.50;;;22.60;99.90;;;;;;6221380;28;89133;-65
2023/09/24 00:18:36;;;;;;;5.45;4.57;;;22.50;99.90;;;;;;6221589;28;88591;-65
2023/09/24 00:21:40;;;;;;;5.13;4.15;;;22.60;99.90;;;;;;6221115;28;88942;-66
2023/09/24 00:24:42;;;;;;;5.07;4.57;;;22.60;99.90;;;;;;6214505;28;89061;-65
2023/09/24 00:27:44;;;;;;;5.03;4.28;;;22.60;99.90;;;;;;6222248;28;90065;-66
2023/09/24 00:30:47;;;;;;;5.68;4.50;;;22.50;99.90;;;;;;6224188;28;89128;-65
2023/09/24 00:33:49;;;;;;;4.93;4.45;;;22.50;99.90;;;;;;6229102;28;89974;-66
2023/09/24 00:36:53;;;;;;;5.28;4.78;;;22.60;99.90;;;;;;6219957;28;89101;-66
2023/09/24 00:39:55;;;;;;;4.70;4.30;;;22.50;99.90;;;;;;6229288;28;89451;-66
2023/09/24 00:42:58;;;;;;;4.90;4.40;;;22.50;99.90;;;;;;6246162;28;89123;-66
2023/09/24 00:46:03;;;;;;;7.63;5.20;;;22.50;99.90;;;;;;6230787;28;89196;-65
2023/09/24 00:49:05;;;;;;;4.72;4.18;;;22.50;99.90;;;;;;6229508;28;88552;-66
2023/09/24 00:52:09;;;;;;;4.78;4.28;;;22.50;99.90;;;;;;6231657;28;89002;-66
2023/09/24 00:55:13;;;;;;;4.60;4.20;;;22.50;99.90;;;;;;6228037;28;89148;-65
2023/09/24 00:58:15;;;;;;;4.80;4.38;;;22.50;99.90;;;;;;6227520;28;90286;-65
2023/09/24 01:01:17;;;;;;;5.15;4.45;;;22.50;99.90;;;;;;6231458;28;88884;-65
2023/09/24 01:04:19;;;;;;;5.43;4.32;;;22.50;99.90;;;;;;6229333;28;89156;-66
2023/09/24 01:07:23;;;;;;;5.28;4.30;;;22.50;99.90;;;;;;6234815;28;89493;-66
2023/09/24 01:10:26;;;;;;;5.10;4.53;;;22.50;99.90;;;;;;6224285;28;89075;-66
2023/09/24 01:13:38;;;;;;;4.80;4.28;;;22.50;99.90;;;;;;6230186;28;89333;-66
2023/09/24 01:16:40;;;;;;;5.80;4.38;;;22.50;99.90;;;;;;6209219;28;89327;-66
2023/09/24 01:19:42;;;;;;;4.50;3.92;;;22.50;99.90;;;;;;6220682;28;88300;-66
2023/09/24 01:22:46;;;;;;;7.25;5.03;;;22.50;99.90;;;;;;6225593;28;89004;-66
2023/09/24 01:25:48;;;;;;;4.22;3.83;;;22.50;99.90;;;;;;6218549;27;89232;-66
2023/09/24 01:28:51;;;;;;;4.05;3.65;;;22.50;99.90;;;;;;6217889;28;90518;-66
2023/09/24 01:31:54;;;;;;;4.50;3.97;;;22.50;99.90;;;;;;6244378;28;92342;-66
2023/09/24 01:34:56;;;;;;;4.70;4.20;;;22.50;99.90;;;;;;6227585;28;89119;-66
2023/09/24 01:38:04;;;;;;;4.53;3.83;;;22.50;99.90;;;;;;6230238;28;89028;-65
2023/09/24 01:41:09;;;;;;;4.30;3.90;;;22.50;99.90;;;;;;6229186;28;88429;-66
2023/09/24 01:44:13;;;;;;;4.57;3.97;;;22.50;99.90;;;;;;6229935;28;89508;-66
2023/09/24 01:47:15;;;;;;;4.30;3.90;;;22.50;99.90;;;;;;6241637;28;89210;-66
2023/09/24 01:50:17;;;;;;;5.45;4.22;;;22.50;99.90;;;;;;6229950;28;88407;-66
2023/09/24 01:53:22;;;;;;;5.90;4.20;;;22.50;99.90;;;;;;6228787;28;89090;-66
2023/09/24 01:56:24;;;;;;;4.35;3.90;;;22.50;99.90;;;;;;6243566;28;88994;-66
2023/09/24 01:59:27;;;;;;;4.05;3.65;;;22.50;99.90;;;;;;6229460;28;91368;-66
2023/09/24 02:02:34;;;;;;;4.07;3.67;;;22.50;99.90;;;;;;6229205;28;89023;-66
2023/09/24 02:05:37;;;;;;;4.78;3.88;;;22.50;99.90;;;;;;6222639;28;89098;-66
2023/09/24 02:08:41;;;;;;;4.05;3.65;;;22.50;99.90;;;;;;6227983;28;89003;-66
2023/09/24 02:11:42;;;;;;;4.10;3.70;;;22.50;99.90;;;;;;6230018;28;88541;-66
2023/09/24 02:14:44;;;;;;;3.63;3.22;;;22.50;99.90;;;;;;6230376;28;89397;-66
2023/09/24 02:17:47;;;;;;;4.15;3.67;;;22.50;99.90;;;;;;6223396;28;89137;-66
2023/09/24 02:20:52;;;;;;;4.00;3.60;;;22.50;99.90;;;;;;6220875;28;88578;-66
2023/09/24 02:23:55;;;;;;;4.07;3.67;;;22.40;99.90;;;;;;6223449;28;88942;-66
2023/09/24 02:26:57;;;;;;;3.70;3.30;;;22.50;99.90;;;;;;6229879;28;89522;-66
2023/09/24 02:29:59;;;;;;;4.20;3.80;;;22.40;99.90;;;;;;6221544;28;90291;-66
2023/09/24 02:33:02;;;;;;;4.60;3.60;;;22.40;99.90;;;;;;6223195;28;88199;-66
2023/09/24 02:36:08;;;;;;;3.88;3.47;;;22.50;99.90;;;;;;6215817;28;89012;-66
2023/09/24 02:39:11;;;;;;;3.80;3.50;;;22.40;99.90;;;;;;6228470;28;89164;-66
2023/09/24 02:42:14;;;;;;;3.63;3.33;;;22.40;99.90;;;;;;6229079;28;89073;-66
2023/09/24 02:45:17;;;;;;;4.82;3.55;;;22.40;99.90;;;;;;6227680;28;87953;-66
2023/09/24 02:48:19;;;;;;;3.92;3.42;;;22.40;99.90;;;;;;6217722;28;89299;-66
2023/09/24 02:51:22;;;;;;;4.20;3.28;;;22.40;99.90;;;;;;6230757;28;89388;-66
2023/09/24 02:54:25;;;;;;;3.65;3.20;;;22.40;99.90;;;;;;6229012;28;89301;-66
2023/09/24 02:57:27;;;;;;;3.88;3.33;;;22.40;99.90;;;;;;6220384;28;89015;-66
2023/09/24 03:00:35;;;;;;;4.05;3.42;;;22.40;99.90;;;;;;6221943;28;89699;-66
2023/09/24 03:03:38;;;;;;;3.70;3.33;;;22.40;99.90;;;;;;6222815;28;89377;-66
2023/09/24 03:06:40;;;;;;;3.65;3.22;;;22.40;99.90;;;;;;6233376;28;89207;-66
2023/09/24 03:09:44;;;;;;;3.97;3.45;;;22.40;99.90;;;;;;6222398;28;88974;-66
2023/09/24 03:12:46;;;;;;;3.50;3.20;;;22.40;99.90;;;;;;6222349;28;89006;-66
2023/09/24 03:15:48;;;;;;;3.45;3.15;;;22.40;99.90;;;;;;6220655;28;89003;-66
2023/09/24 03:18:50;;;;;;;3.33;3.03;;;22.40;99.90;;;;;;6232304;28;89374;-66
2023/09/24 03:21:53;;;;;;;3.60;3.20;;;22.40;99.90;;;;;;6246773;28;88723;-66
2023/09/24 03:24:57;;;;;;;6.57;4.05;;;22.40;99.90;;;;;;6229586;28;87960;-66
2023/09/24 03:28:00;;;;;;;4.75;3.35;;;22.40;99.90;;;;;;6232477;28;89100;-66
2023/09/24 03:31:02;;;;;;;3.40;3.10;;;22.40;99.90;;;;;;6225291;28;89294;-66
2023/09/24 03:34:04;;;;;;;3.60;3.30;;;22.40;99.90;;;;;;6243079;28;89087;-66
2023/09/24 03:37:09;;;;;;;3.92;3.00;;;22.40;99.90;;;;;;6241745;28;89166;-66
2023/09/24 03:40:15;;;;;;;3.22;2.83;;;22.40;99.90;;;;;;6226761;27;88925;-66
2023/09/24 03:43:17;;;;;;;4.85;3.60;;;22.40;99.90;;;;;;6222810;28;87930;-66
2023/09/24 03:46:19;;;;;;;3.25;2.95;;;22.40;99.90;;;;;;6218001;28;89354;-66
2023/09/24 03:49:20;;;;;;;3.63;3.10;;;22.40;99.90;;;;;;6228788;28;89116;-66
2023/09/24 03:52:22;;;;;;;3.63;2.88;;;22.40;99.90;;;;;;6233134;28;88378;-66
2023/09/24 03:55:27;;;;;;;3.08;2.80;;;22.40;99.90;;;;;;6226299;28;88985;-66
2023/09/24 03:58:29;;;;;;;2.90;2.63;;;22.40;99.90;;;;;;6214059;28;91056;-68
2023/09/24 04:01:32;;;;;;;3.40;3.05;;;22.30;99.90;;;;;;6230824;28;90107;-65
2023/09/24 04:04:35;;;;;;;5.35;3.13;;;22.40;99.90;;;;;;6230402;28;88846;-66
2023/09/24 04:07:38;;;;;;;3.60;2.80;;;22.30;99.90;;;;;;6220379;28;88152;-66
2023/09/24 04:10:41;;;;;;;2.90;2.60;;;22.30;99.90;;;;;;6228916;28;89075;-66
2023/09/24 04:13:43;;;;;;;3.58;3.08;;;22.40;99.90;;;;;;6229532;28;89067;-66
2023/09/24 04:16:45;;;;;;;3.35;2.80;;;22.30;99.90;;;;;;6227858;28;88946;-66
2023/09/24 04:19:48;;;;;;;2.90;2.65;;;22.30;99.90;;;;;;6232726;28;89241;-68
2023/09/24 04:22:50;;;;;;;3.38;2.90;;;22.30;99.90;;;;;;6221324;28;88384;-66
2023/09/24 04:25:54;;;;;;;2.97;2.60;;;22.30;99.90;;;;;;6240863;28;89344;-66
2023/09/24 04:28:57;;;;;;;2.80;2.50;;;22.30;99.90;;;;;;6233633;28;87284;-66
2023/09/24 04:31:59;;;;;;;3.05;2.75;;;22.30;99.90;;;;;;6214039;28;90060;-66
2023/09/24 04:35:01;;;;;;;4.13;2.97;;;22.30;99.90;;;;;;6219064;28;89038;-66
2023/09/24 04:38:03;;;;;;;2.70;2.50;;;22.40;99.90;;;;;;6231755;28;89220;-66
2023/09/24 04:41:07;;;;;;;2.40;2.20;;;22.40;99.90;;;;;;6230288;28;89052;-66
2023/09/24 04:44:09;;;;;;;3.03;2.70;;;22.30;99.90;;;;;;6231901;28;89087;-66
2023/09/24 04:47:11;;;;;;;3.10;2.60;;;22.30;99.90;;;;;;6216251;28;89005;-66
2023/09/24 04:50:13;;;;;;;2.72;2.40;;;22.30;99.90;;;;;;6236487;28;89073;-67
2023/09/24 04:53:15;;;;;;;2.50;2.30;;;22.30;99.90;;;;;;6251178;27;88533;-66
2023/09/24 04:56:18;;;;;;;3.63;2.75;;;22.30;99.90;;;;;;6245163;28;89253;-66
2023/09/24 04:59:20;;;;;;;5.50;3.28;;;22.30;99.90;;;;;;6237042;27;89245;-66
2023/09/24 05:02:23;;;;;;;3.17;2.47;;;22.30;99.90;;;;;;6231198;28;90027;-66
2023/09/24 05:05:25;;;;;;;2.63;2.40;;;22.30;99.90;;;;;;6231138;28;88982;-66
2023/09/24 05:08:27;;;;;;;2.92;2.50;;;22.30;99.90;;;;;;6229270;28;88976;-66
2023/09/24 05:11:31;;;;;;;3.53;2.70;;;22.30;99.90;;;;;;6220288;28;89035;-66
2023/09/24 05:14:33;;;;;;;3.08;2.70;;;22.30;99.90;;;;;;6219531;28;89174;-65
2023/09/24 05:17:35;;;;;;;3.00;2.70;;;22.30;99.90;;;;;;6228812;28;88963;-66
2023/09/24 05:20:37;;;;;;;2.90;2.58;;;22.30;99.90;;;;;;6229910;28;89055;-66
2023/09/24 05:23:39;;;;;;;3.35;2.83;;;22.30;99.90;;;;;;6244410;28;88176;-66
2023/09/24 05:26:43;;;;;;;3.97;3.22;;;22.30;99.90;;;;;;6231036;28;87983;-66
2023/09/24 05:29:47;;;;;;;3.13;2.83;;;22.30;99.90;;;;;;6236649;27;89197;-66
2023/09/24 05:32:49;;;;;;;3.55;3.08;;;22.20;99.90;;;;;;6209952;28;90009;-66
2023/09/24 05:35:52;;;;;;;3.25;2.95;;;22.20;99.90;;;;;;6229706;28;89038;-66
2023/09/24 05:38:54;;;;;;;3.50;3.00;;;22.20;99.90;;;;;;6230955;28;88003;-66
2023/09/24 05:41:58;;;;;;;3.38;3.08;;;22.30;99.90;;;;;;6242779;28;88992;-66
2023/09/24 05:45:00;;;;;;;3.90;3.50;;;22.30;99.90;;;;;;6230136;28;89118;-66
2023/09/24 05:48:02;;;;;;;5.18;4.05;;;22.30;99.90;;;;;;6217793;28;89085;-66
2023/09/24 05:51:04;;;;;;;4.03;3.63;;;22.20;99.90;;;;;;6225945;28;88935;-66
2023/09/24 05:54:07;;;;;;;4.32;3.88;;;22.30;99.90;;;;;;6214743;28;88272;-66
2023/09/24 05:57:10;;;;;;;4.50;3.83;;;22.20;99.90;;;;;;6218598;28;89054;-66
2023/09/24 06:00:13;;;;;;;7.28;5.18;;;22.30;99.90;;;;;;6229834;28;89010;-66
2023/09/24 06:03:15;;;;;;;5.00;4.20;;;22.30;99.90;;;;;;6230258;28;89980;-66
2023/09/24 06:06:17;;;;;;;5.57;3.95;;;22.30;99.90;;;;;;6217411;28;89153;-66
2023/09/24 06:09:20;;;;;;;4.90;4.25;;;22.30;99.90;;;;;;6228314;28;89085;-66
2023/09/24 06:12:24;;;;;;;6.22;4.65;;;22.30;99.90;;;;;;6218988;28;89288;-66
2023/09/24 06:15:26;;;;;;;5.10;4.07;;;22.30;99.90;;;;;;6226459;28;88997;-65
2023/09/24 06:18:28;;;;;;;9.85;4.97;;;22.40;99.90;;;;;;6228437;28;88156;-64
2023/09/24 06:21:30;;;;;;;8.48;4.47;;;22.40;99.90;;;;;;6229651;28;89062;-68
2023/09/24 06:24:32;;;;;;;7.65;5.32;;;22.40;99.90;;;;;;6236860;28;88354;-68
2023/09/24 06:27:35;;;;;;;8.43;5.45;;;22.40;99.90;;;;;;6216138;28;87922;-68
2023/09/24 06:30:38;;;;;;;6.38;4.40;;;22.50;99.90;;;;;;6227212;28;88962;-68
2023/09/24 06:33:40;;;;;;;8.35;5.30;;;22.40;99.90;;;;;;6228496;28;89859;-68
2023/09/24 06:36:42;;;;;;;13.95;6.78;;;22.50;99.90;;;;;;6228837;28;91375;-68
2023/09/24 06:39:44;;;;;;;13.38;6.40;;;22.50;99.90;;;;;;6233538;28;89060;-68
2023/09/24 06:42:47;;;;;;;11.30;6.32;;;22.40;99.90;;;;;;6237487;28;89035;-67
2023/09/24 06:45:49;;;;;;;13.65;6.32;;;22.50;99.90;;;;;;6239572;27;89163;-67
2023/09/24 06:48:51;;;;;;;9.95;6.22;;;22.40;99.90;;;;;;6238081;27;89051;-67
2023/09/24 06:51:53;;;;;;;12.43;7.15;;;22.40;99.90;;;;;;6248676;27;89027;-67
2023/09/24 06:54:55;;;;;;;14.38;7.93;;;22.40;99.90;;;;;;6233155;28;88398;-67
2023/09/24 06:57:59;;;;;;;11.82;6.90;;;22.40;99.90;;;;;;6233486;28;87971;-68
2023/09/24 07:01:01;;;;;;;10.02;5.85;;;22.40;99.90;;;;;;6234742;28;89129;-67
2023/09/24 07:04:04;;;;;;;11.32;6.68;;;22.40;99.90;;;;;;6233406;28;88847;-67
2023/09/24 07:07:11;;;;;;;9.48;6.45;;;22.40;99.90;;;;;;6232684;28;89182;-67
2023/09/24 07:10:13;;;;;;;15.30;6.88;;;22.40;99.90;;;;;;6230393;28;90266;-68
2023/09/24 07:13:17;;;;;;;19.67;8.07;;;22.40;99.90;;;;;;6234957;28;89172;-68
2023/09/24 07:16:21;;;;;;;25.23;11.18;;;22.40;99.90;;;;;;6236491;27;88999;-67
2023/09/24 07:19:24;;;;;;;24.10;10.55;;;22.40;99.90;;;;;;6231216;28;88710;-68
2023/09/24 07:22:26;;;;;;;21.90;9.90;;;22.40;99.90;;;;;;6232284;28;89546;-68
2023/09/24 07:25:28;;;;;;;22.58;10.07;;;22.40;99.90;;;;;;6234474;28;88661;-68
2023/09/24 07:28:32;;;;;;;17.83;9.50;;;22.40;99.90;;;;;;6227983;28;90261;-67
2023/09/24 07:31:34;;;;;;;18.92;8.85;;;22.50;99.90;;;;;;6228853;28;89088;-68
2023/09/24 07:34:36;;;;;;;17.75;8.93;;;22.40;99.90;;;;;;6232029;28;90006;-68
2023/09/24 07:37:39;;;;;;;16.33;8.48;;;22.50;99.90;;;;;;6229568;28;87976;-68
2023/09/24 07:40:41;;;;;;;14.00;8.18;;;22.50;99.90;;;;;;6231046;28;90715;-68
2023/09/24 07:43:44;;;;;;;13.50;7.95;;;22.50;99.90;;;;;;6233076;28;89314;-68
2023/09/24 07:46:47;;;;;;;16.33;8.32;;;22.50;99.90;;;;;;6243519;27;88729;-68
2023/09/24 07:49:49;;;;;;;14.40;8.02;;;22.50;99.90;;;;;;6216505;28;89248;-68
2023/09/24 07:52:51;;;;;;;14.75;8.13;;;22.50;99.90;;;;;;6231947;28;89057;-67
2023/09/24 07:55:57;;;;;;;13.18;7.93;;;22.50;99.90;;;;;;6230217;28;88361;-68
2023/09/24 07:59:02;;;;;;;12.55;7.13;;;22.50;99.90;;;;;;6232901;27;89034;-68
2023/09/24 08:02:04;;;;;;;12.13;7.20;;;22.50;99.90;;;;;;6229069;28;89089;-68
2023/09/24 08:05:07;;;;;;;11.55;7.15;;;22.50;99.90;;;;;;6252040;28;90035;-68
2023/09/24 08:08:09;;;;;;;10.85;7.13;;;22.50;99.90;;;;;;6230756;28;89130;-68
2023/09/24 08:11:11;;;;;;;12.82;7.60;;;22.50;99.90;;;;;;6227871;28;87945;-68
2023/09/24 08:14:14;;;;;;;9.43;6.97;;;22.50;99.90;;;;;;6231334;28;88282;-68
2023/09/24 08:17:16;;;;;;;9.65;6.53;;;22.50;99.90;;;;;;6231919;28;89355;-68
2023/09/24 08:20:18;;;;;;;11.57;7.10;;;22.50;99.90;;;;;;6230185;28;89037;-68
2023/09/24 08:23:21;;;;;;;14.38;7.50;;;22.50;99.90;;;;;;6254433;27;89188;-68
2023/09/24 08:26:23;;;;;;;11.50;7.50;;;22.50;99.90;;;;;;6231922;28;88320;-68
2023/09/24 08:29:26;;;;;;;9.85;6.50;;;22.50;99.90;;;;;;6223960;28;89477;-68
2023/09/24 08:32:29;;;;;;;10.60;6.50;;;22.50;99.90;;;;;;6223358;28;89058;-68
2023/09/24 08:35:31;;;;;;;10.45;6.72;;;22.50;99.90;;;;;;6223502;28;90259;-68
2023/09/24 08:38:32;;;;;;;10.43;6.78;;;22.50;99.90;;;;;;6208017;28;89127;-68
2023/09/24 08:41:36;;;;;;;9.90;7.10;;;22.50;99.90;;;;;;6220541;28;89176;-68
2023/09/24 08:44:40;;;;;;;10.18;6.57;;;22.50;99.90;;;;;;6222639;28;88258;-68
2023/09/24 08:47:43;;;;;;;9.45;6.70;;;22.50;99.90;;;;;;6218739;28;88300;-68
2023/09/24 08:50:46;;;;;;;10.18;7.00;;;22.60;99.90;;;;;;6225897;28;88990;-68
2023/09/24 08:53:48;;;;;;;9.10;6.60;;;22.50;99.90;;;;;;6224272;28;88994;-68
2023/09/24 08:56:50;;;;;;;9.52;6.60;;;22.50;99.90;;;;;;6241916;27;88389;-68
2023/09/24 08:59:53;;;;;;;8.95;7.00;;;22.60;99.90;;;;;;6240523;27;89739;-68
2023/09/24 09:02:55;;;;;;;10.50;6.80;;;22.50;99.90;;;;;;6243014;28;89062;-68
2023/09/24 09:05:57;;;;;;;9.18;6.70;;;22.50;99.90;;;;;;6226599;28;90203;-68
2023/09/24 09:09:00;;;;;;;8.75;6.63;;;22.60;99.90;;;;;;6218133;28;89396;-68
2023/09/24 09:12:03;;;;;;;9.13;6.70;;;22.50;99.90;;;;;;6229152;28;89050;-68
2023/09/24 09:15:17;;;;;;;9.93;7.45;;;22.60;99.90;;;;;;6230940;28;89555;-68
2023/09/24 09:18:23;;;;;;;11.75;7.47;;;22.60;99.90;;;;;;6229744;28;87950;-68
2023/09/24 09:21:26;;;;;;;10.32;6.63;;;22.50;99.90;;;;;;6217127;28;89446;-68
2023/09/24 09:24:28;;;;;;;9.15;7.35;;;22.50;99.90;;;;;;6219512;28;89238;-68
2023/09/24 09:27:32;;;;;;;8.95;7.00;;;22.50;99.90;;;;;;6220536;28;88612;-68
2023/09/24 09:30:36;;;;;;;8.82;6.95;;;22.50;99.90;;;;;;6224266;28;89393;-68
2023/09/24 09:33:40;;;;;;;9.13;7.38;;;22.60;99.90;;;;;;6231726;28;89081;-68
2023/09/24 09:36:42;;;;;;;8.75;6.65;;;22.50;99.90;;;;;;6229287;28;90311;-68
2023/09/24 09:39:45;;;;;;;9.75;7.20;;;22.50;99.90;;;;;;6218423;28;89177;-68
2023/09/24 09:42:50;;;;;;;9.30;6.85;;;22.60;99.90;;;;;;6227939;28;89029;-68
2023/09/24 09:45:55;;;;;;;11.25;7.03;;;22.50;99.90;;;;;;6227372;28;89033;-68
2023/09/24 09:49:02;;;;;;;8.93;6.93;;;22.60;99.90;;;;;;6225880;28;89097;-68
2023/09/24 09:52:04;;;;;;;9.80;7.28;;;22.60;99.90;;;;;;6225863;28;88343;-68
2023/09/24 09:55:07;;;;;;;10.50;7.18;;;22.50;99.90;;;;;;6233019;28;87927;-68
2023/09/24 09:58:12;;;;;;;11.00;7.38;;;22.60;99.90;;;;;;6231659;27;88456;-68
2023/09/24 10:01:18;;;;;;;10.88;7.07;;;22.50;99.90;;;;;;6230138;28;88967;-68
2023/09/24 10:04:21;;;;;;;11.80;6.97;;;22.50;99.90;;;;;;6243902;27;89096;-68
2023/09/24 10:07:23;;;;;;;9.77;7.28;;;22.50;99.90;;;;;;6229733;28;89945;-68
2023/09/24 10:10:42;;;;;;;10.65;7.20;;;22.50;99.90;;;;;;6227826;28;88947;-67
2023/09/24 10:13:46;;;;;;;9.68;7.18;;;22.60;99.90;;;;;;6231134;28;88883;-68
2023/09/24 10:16:51;;;;;;;12.70;7.60;;;22.50;99.90;;;;;;6222536;28;89228;-67
2023/09/24 10:19:54;;;;;;;12.18;7.65;;;22.50;99.90;;;;;;6215115;28;88991;-68
2023/09/24 10:23:16;;;;;;;10.82;7.18;;;22.60;99.90;;;;;;6231605;28;88966;-68
2023/09/24 10:26:49;;;;;;;13.00;8.10;;;22.50;99.90;;;;;;6219241;28;89105;-68
2023/09/24 10:30:08;;;;;;;9.38;7.50;;;22.50;99.90;;;;;;6235003;27;88595;-67
2023/09/24 10:33:11;;;;;;;10.63;7.30;;;22.50;99.90;;;;;;6219096;28;88986;-68
2023/09/24 10:36:21;;;;;;;9.98;7.07;;;22.60;99.90;;;;;;6240982;28;89098;-68
2023/09/24 10:39:23;;;;;;;11.32;7.15;;;22.50;99.90;;;;;;6230120;27;89761;-67
2023/09/24 10:42:26;;;;;;;8.95;6.90;;;22.60;99.90;;;;;;6233402;28;89032;-68
2023/09/24 10:45:28;;;;;;;10.77;7.65;;;22.50;99.90;;;;;;6229439;28;89435;-68
2023/09/24 10:48:33;;;;;;;10.35;7.55;;;22.60;99.90;;;;;;6229714;28;89005;-68
2023/09/24 10:51:35;;;;;;;10.45;7.55;;;22.60;99.90;;;;;;6216794;28;89486;-68
2023/09/24 10:54:36;;;;;;;10.52;7.60;;;22.60;99.90;;;;;;6215241;28;87018;-68
2023/09/24 10:57:39;;;;;;;10.75;7.45;;;22.60;99.90;;;;;;6215988;28;89295;-68
2023/09/24 11:00:43;;;;;;;10.32;7.35;;;22.50;99.90;;;;;;6230027;28;88375;-68
2023/09/24 11:03:47;;;;;;;11.38;7.45;;;22.50;99.90;;;;;;6216006;28;89078;-68
2023/09/24 11:06:49;;;;;;;10.45;7.25;;;22.60;99.90;;;;;;6229231;28;89104;-68
2023/09/24 11:09:51;;;;;;;11.75;7.43;;;22.60;99.90;;;;;;6219688;28;90102;-68
2023/09/24 11:12:55;;;;;;;9.77;7.25;;;22.50;99.90;;;;;;6234256;28;87975;-68
2023/09/24 11:15:57;;;;;;;10.20;7.43;;;22.50;99.90;;;;;;6230159;28;89012;-68
2023/09/24 11:19:00;;;;;;;9.85;7.13;;;22.60;99.90;;;;;;6228341;28;88843;-68
2023/09/24 11:22:16;;;;;;;11.77;7.43;;;22.60;99.90;;;;;;6213460;28;90002;-69
2023/09/24 11:25:19;;;;;;;10.10;7.18;;;22.60;99.90;;;;;;6226122;28;88054;-68
2023/09/24 11:28:30;;;;;;;10.98;6.70;;;22.50;99.90;;;;;;6233494;28;89063;-68
2023/09/24 11:31:32;;;;;;;9.05;6.95;;;22.50;99.90;;;;;;6230220;28;87167;-68
2023/09/24 11:34:36;;;;;;;11.07;7.45;;;22.60;99.90;;;;;;6237964;28;89485;-69
2023/09/24 11:37:51;;;;;;;9.25;6.68;;;22.50;99.90;;;;;;6230666;28;89269;-68
2023/09/24 11:40:53;;;;;;;9.55;6.95;;;22.60;99.90;;;;;;6237331;27;89997;-68
2023/09/24 11:43:59;;;;;;;10.70;7.45;;;22.60;99.90;;;;;;6245743;28;88973;-68
2023/09/24 11:47:01;;;;;;;9.52;7.03;;;22.60;99.90;;;;;;6236842;28;89427;-68
2023/09/24 11:50:06;;;;;;;9.07;6.72;;;22.60;99.90;;;;;;6220539;28;86990;-68
2023/09/24 11:53:10;;;;;;;11.20;7.53;;;22.60;99.90;;;;;;6222581;28;88921;-68
2023/09/24 11:56:12;;;;;;;9.73;7.22;;;22.50;99.90;;;;;;6222978;28;88090;-68
2023/09/24 11:59:15;;;;;;;9.40;6.47;;;22.60;99.90;;;;;;6229027;28;89261;-68
2023/09/24 12:02:17;;;;;;;9.55;7.13;;;22.60;99.90;;;;;;6233897;28;87197;-67
2023/09/24 12:05:21;;;;;;;8.95;6.65;;;22.60;99.90;;;;;;6232323;28;89567;-68
2023/09/24 12:08:23;;;;;;;8.75;6.43;;;22.60;99.90;;;;;;6221206;28;89115;-68
2023/09/24 12:11:25;;;;;;;10.25;6.65;;;22.60;99.90;;;;;;6222351;28;90103;-68
2023/09/24 12:14:32;;;;;;;9.20;6.32;;;22.50;99.90;;;;;;6230896;28;87725;-68
2023/09/24 12:17:34;;;;;;;8.23;6.55;;;22.60;99.90;;;;;;6230672;28;87920;-68
2023/09/24 12:20:39;;;;;;;8.32;6.70;;;22.60;99.90;;;;;;6218117;28;89020;-68
2023/09/24 12:23:43;;;;;;;8.10;6.50;;;22.60;99.90;;;;;;6226326;28;89048;-68
2023/09/24 12:26:45;;;;;;;10.13;6.80;;;22.60;99.90;;;;;;6228941;28;88110;-68
2023/09/24 12:29:47;;;;;;;8.05;6.82;;;22.60;99.90;;;;;;6223261;28;89177;-67
2023/09/24 12:32:50;;;;;;;8.38;6.05;;;22.60;99.90;;;;;;6240480;28;88667;-68
2023/09/24 12:35:54;;;;;;;8.05;6.13;;;22.60;99.90;;;;;;6231215;27;88953;-68
2023/09/24 12:38:57;;;;;;;8.93;6.30;;;22.50;99.90;;;;;;6247452;28;89570;-68
2023/09/24 12:41:59;;;;;;;11.40;7.20;;;22.50;99.90;;;;;;6232903;27;90045;-68
2023/09/24 12:45:01;;;;;;;9.15;6.32;;;22.60;99.90;;;;;;6224845;28;89026;-68
2023/09/24 12:48:03;;;;;;;9.70;6.30;;;22.60;99.90;;;;;;6221599;28;89148;-68
2023/09/24 12:51:07;;;;;;;8.27;6.18;;;22.60;99.90;;;;;;6226067;28;89409;-68
2023/09/24 12:54:09;;;;;;;9.88;6.35;;;22.50;99.90;;;;;;6226410;28;89863;-68
2023/09/24 12:57:11;;;;;;;8.45;6.03;;;22.50;99.90;;;;;;6231997;28;89064;-68
2023/09/24 13:00:17;;;;;;;9.80;6.78;;;22.50;99.90;;;;;;6229742;28;89028;-67
2023/09/24 13:03:20;;;;;;;9.27;6.32;;;22.60;99.90;;;;;;6221442;28;86640;-68
2023/09/24 13:06:26;;;;;;;8.00;6.00;;;22.60;99.90;;;;;;6219197;28;89798;-68
2023/09/24 13:09:30;;;;;;;11.25;6.82;;;22.60;99.90;;;;;;6211174;28;86988;-68
2023/09/24 13:12:34;;;;;;;8.07;6.18;;;22.60;99.90;;;;;;6230783;28;88005;-68
2023/09/24 13:15:38;;;;;;;8.15;5.80;;;22.60;99.90;;;;;;6225651;28;87072;-68
2023/09/24 13:18:43;;;;;;;7.38;5.90;;;22.50;99.90;;;;;;6230841;28;88004;-68
2023/09/24 13:21:48;;;;;;;8.43;5.97;;;22.60;99.90;;;;;;6230461;28;88120;-68
2023/09/24 13:24:52;;;;;;;10.18;6.25;;;22.60;99.90;;;;;;6229652;28;88301;-68
2023/09/24 13:27:56;;;;;;;9.82;6.72;;;22.60;99.90;;;;;;6230431;28;88088;-68
2023/09/24 13:31:00;;;;;;;7.70;5.82;;;22.50;99.90;;;;;;6218101;28;88528;-68
2023/09/24 13:34:05;;;;;;;7.80;5.80;;;22.60;99.90;;;;;;6226009;28;87378;-68
2023/09/24 13:37:11;;;;;;;9.50;5.95;;;22.60;99.90;;;;;;6229575;28;88389;-68
2023/09/24 13:40:15;;;;;;;8.05;5.63;;;22.60;99.90;;;;;;6230139;28;88061;-68
2023/09/24 13:43:18;;;;;;;7.80;5.70;;;22.60;99.90;;;;;;6219027;28;89275;-68
2023/09/24 13:46:22;;;;;;;7.13;5.65;;;22.60;99.90;;;;;;6233970;28;88138;-68
2023/09/24 13:49:28;;;;;;;8.48;5.88;;;22.60;99.90;;;;;;6239993;28;88120;-68
2023/09/24 13:52:33;;;;;;;8.10;5.65;;;22.60;99.90;;;;;;6230283;28;88365;-68
2023/09/24 13:55:37;;;;;;;7.60;5.40;;;22.60;99.90;;;;;;6235021;27;88107;-68
2023/09/24 13:58:41;;;;;;;8.38;5.97;;;22.60;99.90;;;;;;6239821;28;88816;-68
2023/09/24 14:01:45;;;;;;;6.90;5.07;;;22.60;99.90;;;;;;6230911;28;87057;-68
2023/09/24 14:04:49;;;;;;;6.95;5.25;;;22.50;99.90;;;;;;6236784;28;87682;-68
2023/09/24 14:12:17;;;;;;;7.88;5.43;;;22.60;99.90;;;;;;6228554;28;88340;-68
2023/09/24 14:14:44;;;;;;;8.35;5.50;;;22.50;99.90;;;;;;6241265;28;88223;-68
2023/09/24 14:17:48;;;;;;;7.28;5.28;;;22.50;99.90;;;;;;6220399;28;88525;-68
2023/09/24 14:20:52;;;;;;;6.57;5.22;;;22.60;99.90;;;;;;6227091;28;86933;-68
2023/09/24 14:23:57;;;;;;;6.95;5.07;;;22.60;99.90;;;;;;6243885;28;87245;-68
2023/09/24 14:27:02;;;;;;;5.72;4.65;;;22.50;99.90;;;;;;6223898;28;87773;-68
2023/09/24 14:30:07;;;;;;;7.35;5.15;;;22.60;99.90;;;;;;6223631;28;88117;-68
2023/09/24 14:33:11;;;;;;;7.18;5.32;;;22.50;99.90;;;;;;6230953;28;87994;-68
2023/09/24 14:36:15;;;;;;;6.82;4.93;;;22.60;99.90;;;;;;6237690;28;87589;-68
2023/09/24 14:39:20;;;;;;;7.20;5.10;;;22.60;99.90;;;;;;6221215;27;88026;-68
2023/09/24 14:42:24;;;;;;;6.60;5.10;;;22.50;99.90;;;;;;6224339;28;88023;-69
2023/09/24 14:45:28;;;;;;;6.38;4.85;;;22.60;99.90;;;;;;6219678;28;88986;-69
2023/09/24 14:48:33;;;;;;;5.82;4.70;;;22.50;99.90;;;;;;6230020;28;88035;-68
2023/09/24 14:51:37;;;;;;;7.35;5.05;;;22.50;99.90;;;;;;6216923;28;88012;-68
2023/09/24 14:54:42;;;;;;;6.13;4.95;;;22.50;99.90;;;;;;6248425;28;87093;-68
2023/09/24 14:57:48;;;;;;;6.07;4.88;;;22.60;99.90;;;;;;6239454;27;90301;-68
2023/09/24 15:00:52;;;;;;;6.20;4.57;;;22.50;99.90;;;;;;6235875;27;87175;-68
2023/09/24 15:03:55;;;;;;;5.18;4.60;;;22.50;99.90;;;;;;6238411;28;88019;-68
2023/09/24 15:06:59;;;;;;;6.75;4.85;;;22.60;99.90;;;;;;6239769;27;87089;-68
2023/09/24 15:10:05;;;;;;;6.82;4.90;;;22.60;99.90;;;;;;6232127;28;88417;-69
2023/09/24 15:13:09;;;;;;;7.30;5.03;;;22.50;99.90;;;;;;6245860;27;89452;-68
2023/09/24 15:16:13;;;;;;;8.52;5.32;;;22.60;99.90;;;;;;6229790;28;90507;-68
2023/09/24 15:19:17;;;;;;;5.43;4.60;;;22.50;99.90;;;;;;6231338;28;88400;-68
2023/09/24 15:22:20;;;;;;;5.25;4.00;;;22.50;99.90;;;;;;6229716;28;87955;-69
2023/09/24 15:25:26;;;;;;;5.25;4.22;;;22.50;99.90;;;;;;6231502;28;88285;-68
2023/09/24 15:28:30;;;;;;;5.68;4.35;;;22.50;99.90;;;;;;6227300;28;88003;-68
2023/09/24 15:31:34;;;;;;;5.10;4.40;;;22.50;99.90;;;;;;6225071;28;88199;-68
2023/09/24 15:34:38;;;;;;;6.38;4.70;;;22.50;99.90;;;;;;6233605;28;88022;-68
2023/09/24 15:37:41;;;;;;;5.88;4.43;;;22.50;99.90;;;;;;6233632;28;87290;-68
2023/09/24 15:40:47;;;;;;;5.10;4.35;;;22.50;99.90;;;;;;6237117;28;88326;-68
2023/09/24 15:43:50;;;;;;;5.82;4.32;;;22.50;99.90;;;;;;6239509;27;87897;-68
2023/09/24 15:46:54;;;;;;;6.43;4.47;;;22.50;99.90;;;;;;6229309;28;88939;-68
2023/09/24 15:49:58;;;;;;;5.55;4.20;;;22.50;99.90;;;;;;6233407;28;88028;-68
2023/09/24 15:53:03;;;;;;;5.90;4.40;;;22.60;99.90;;;;;;6222839;28;88026;-68
2023/09/24 15:56:08;;;;;;;5.68;4.70;;;22.50;99.90;;;;;;6221838;28;87828;-68